Buchanan, Michigan
Current Conditions -  °F | °C
As of 8:54 PM on Tuesday 21 Oct 2014 (Local Time) from KSBN Reporting Station
Few Clouds Few Clouds  
Wind Chill: 42°   Ceiling: Unl
Heat Index: 44°   Visibility: 10mi
Dew Point: 36°   Wind: 5mph
Humidity: 73%   Direction: 30°NNE
Pressure: 30.22"   Gusts: NA
Location:  41.83°N, 86.36°W
Report Text: KSBN 220054Z 03004KT 10SM FEW035 07/02 A3022 RMK AO2 SLP239 T00670022
Loading
Personal Weather Stations






























Interactive Weather Map
Tropical Storm Tracking
New forecast layout! Learn more

10-Day Weather Forecast

Advertisements
Track Severe Weather on mobile